createdAt,value
2022-09-21T00:08:40.743Z,8.27
2022-09-21T00:11:09.154Z,8.55
2022-09-21T00:13:38.020Z,8.20
2022-09-21T00:18:46.644Z,8.07
2022-09-21T00:21:17.013Z,8.13
2022-09-21T00:31:43.815Z,8.25
2022-09-21T00:39:21.909Z,7.80
2022-09-21T00:41:54.313Z,8.13
2022-09-21T01:02:47.508Z,7.78
2022-09-21T01:05:14.513Z,7.82
2022-09-21T01:07:45.868Z,7.78
2022-09-21T01:12:51.773Z,8.38
2022-09-21T01:15:43.281Z,6.95
2022-09-21T01:21:15.895Z,6.43
2022-09-21T01:26:46.452Z,7.78
2022-09-21T01:29:35.682Z,6.18
2022-09-21T01:32:35.834Z,6.72
2022-09-21T01:48:28.432Z,6.70
2022-09-21T01:51:02.179Z,6.97
2022-09-21T01:53:59.082Z,8.15
2022-09-21T01:56:40.831Z,7.03
2022-09-21T01:59:30.024Z,8.25
2022-09-21T02:02:00.809Z,7.35
2022-09-21T02:04:28.447Z,7.53
2022-09-21T02:06:56.320Z,7.28
2022-09-21T02:09:24.646Z,6.82
2022-09-21T02:11:54.125Z,7.22
2022-09-21T02:14:26.650Z,7.22
2022-09-21T02:17:08.567Z,6.93
2022-09-21T02:20:07.614Z,7.30
2022-09-21T02:23:07.332Z,7.70
2022-09-21T02:26:13.776Z,7.28
2022-09-21T02:29:25.255Z,8.32
2022-09-21T02:32:06.439Z,7.70
2022-09-21T02:34:41.917Z,7.95
2022-09-21T02:37:23.011Z,7.90
2022-09-21T02:40:33.858Z,8.80
2022-09-21T02:43:09.292Z,8.38
2022-09-21T02:45:48.977Z,8.55
2022-09-21T02:48:25.152Z,8.02
2022-09-21T02:50:58.101Z,8.02
2022-09-21T02:53:28.922Z,7.85
2022-09-21T02:55:58.367Z,8.35
2022-09-21T02:58:29.500Z,9.02
2022-09-21T03:00:58.331Z,9.18
2022-09-21T03:03:26.462Z,7.05
2022-09-21T03:08:31.040Z,7.75
2022-09-21T03:13:39.491Z,9.45
2022-09-21T03:16:08.319Z,8.52
2022-09-21T03:18:35.200Z,9.15
2022-09-21T03:21:03.521Z,11.02
2022-09-21T03:23:34.303Z,9.75
2022-09-21T03:26:04.538Z,11.50
2022-09-21T03:28:32.426Z,12.70
2022-09-21T03:30:59.534Z,11.95
2022-09-21T03:33:26.416Z,9.98
2022-09-21T03:35:53.925Z,10.88
2022-09-21T03:38:21.928Z,10.50
2022-09-21T03:40:50.505Z,10.27
2022-09-21T03:43:19.435Z,10.10
2022-09-21T03:45:50.005Z,10.27
2022-09-21T03:48:16.917Z,10.70
2022-09-21T03:50:45.152Z,11.95
2022-09-21T03:53:15.384Z,12.27
2022-09-21T03:55:43.252Z,11.35
2022-09-21T03:58:10.566Z,14.50
2022-09-21T04:00:39.561Z,12.73
2022-09-21T04:03:08.688Z,12.30
2022-09-21T04:05:35.786Z,14.25
2022-09-21T04:08:03.545Z,15.07
2022-09-21T04:10:33.615Z,14.52
2022-09-21T04:13:11.105Z,14.30
2022-09-21T04:15:37.816Z,14.07
2022-09-21T04:18:05.923Z,13.23
2022-09-21T04:20:32.940Z,13.20
2022-09-21T04:23:00.239Z,12.40
2022-09-21T04:25:27.167Z,13.38
2022-09-21T04:27:55.547Z,12.95
2022-09-21T04:30:22.254Z,11.85
2022-09-21T04:32:50.619Z,12.18
2022-09-21T04:35:18.673Z,13.23
2022-09-21T04:37:46.723Z,12.80
2022-09-21T04:40:13.494Z,11.65
2022-09-21T04:42:40.767Z,11.48
2022-09-21T04:45:11.134Z,14.80
2022-09-21T04:47:37.791Z,11.60
2022-09-21T04:50:05.136Z,11.38
2022-09-21T04:52:33.037Z,13.30
2022-09-21T04:55:07.054Z,11.77
2022-09-21T04:57:35.916Z,11.57
2022-09-21T05:00:08.252Z,12.55
2022-09-21T05:02:35.898Z,10.70
2022-09-21T05:05:02.592Z,12.68
2022-09-21T05:07:30.653Z,10.85
2022-09-21T05:10:05.035Z,12.75
2022-09-21T05:12:33.120Z,12.13
2022-09-21T05:15:00.583Z,12.23
2022-09-21T05:17:29.442Z,12.63
2022-09-21T05:19:56.128Z,10.13
2022-09-21T05:22:24.547Z,10.95
2022-09-21T05:24:52.133Z,11.38
2022-09-21T05:27:22.145Z,10.57
2022-09-21T05:29:49.092Z,12.50
2022-09-21T05:32:41.919Z,9.88
2022-09-21T05:35:38.018Z,10.05
2022-09-21T05:38:14.664Z,8.93
2022-09-21T05:40:42.927Z,8.88
2022-09-21T05:43:16.586Z,9.48
2022-09-21T05:45:52.223Z,10.63
2022-09-21T05:48:27.532Z,11.10
2022-09-21T05:51:21.454Z,10.20
2022-09-21T05:54:05.684Z,10.52
2022-09-21T05:56:51.158Z,12.20
2022-09-21T05:59:41.348Z,11.32
2022-09-21T06:02:45.933Z,11.55
2022-09-21T06:05:14.728Z,11.60
2022-09-21T06:07:42.031Z,12.23
2022-09-21T06:10:10.372Z,10.25
2022-09-21T06:12:37.575Z,10.13
2022-09-21T06:15:06.014Z,12.07
2022-09-21T06:17:34.027Z,10.23
2022-09-21T06:20:00.799Z,10.35
2022-09-21T06:22:30.632Z,10.32
2022-09-21T06:24:57.292Z,11.35
2022-09-21T06:27:24.368Z,10.60
2022-09-21T06:29:55.025Z,9.68
2022-09-21T06:32:22.146Z,9.27
2022-09-21T06:34:50.159Z,9.15
2022-09-21T06:37:17.253Z,8.07
2022-09-21T06:39:44.136Z,9.43
2022-09-21T06:42:10.882Z,10.48
2022-09-21T06:44:37.533Z,9.98
2022-09-21T06:47:05.815Z,10.32
2022-09-21T06:49:32.470Z,11.40
2022-09-21T06:51:59.706Z,11.43
2022-09-21T06:54:26.439Z,12.27
2022-09-21T06:56:55.816Z,11.55
2022-09-21T06:59:26.019Z,10.48
2022-09-21T07:01:56.074Z,10.65
2022-09-21T07:04:25.351Z,10.68
2022-09-21T07:06:52.728Z,11.73
2022-09-21T07:12:08.390Z,9.85
2022-09-21T07:14:35.048Z,12.70
2022-09-21T07:17:02.363Z,14.32
2022-09-21T07:19:29.977Z,13.50
2022-09-21T07:21:56.648Z,11.52
2022-09-21T07:24:23.913Z,11.88
2022-09-21T07:26:50.904Z,11.93
2022-09-21T07:29:17.919Z,13.10
2022-09-21T07:31:45.158Z,10.73
2022-09-21T07:34:13.494Z,9.60
2022-09-21T07:36:41.925Z,9.70
2022-09-21T07:39:13.580Z,10.68
2022-09-21T07:41:40.301Z,9.65
2022-09-21T07:44:07.574Z,8.15
2022-09-21T07:46:36.154Z,8.02
2022-09-21T07:49:04.816Z,9.30
2022-09-21T07:51:32.116Z,7.13
2022-09-21T07:53:58.826Z,7.40
2022-09-21T07:56:27.111Z,6.47
2022-09-21T07:59:09.243Z,5.88
2022-09-21T08:01:38.879Z,8.35
2022-09-21T08:04:11.288Z,7.32
2022-09-21T08:06:40.169Z,8.48
2022-09-21T08:09:09.271Z,8.60
2022-09-21T08:11:37.507Z,7.85
2022-09-21T08:14:04.879Z,8.10
2022-09-21T08:16:33.808Z,8.75
2022-09-21T08:19:02.241Z,7.60
2022-09-21T08:21:28.936Z,6.57
2022-09-21T08:23:56.252Z,7.20
2022-09-21T08:26:23.936Z,7.18
2022-09-21T08:28:53.101Z,6.18
2022-09-21T08:31:22.270Z,7.05
2022-09-21T08:33:50.296Z,8.00
2022-09-21T08:36:18.973Z,6.80
2022-09-21T08:38:46.702Z,7.35
2022-09-21T08:41:34.574Z,6.20
2022-09-21T08:44:24.207Z,6.68
2022-09-21T08:47:03.676Z,5.88
2022-09-21T08:49:35.247Z,6.05
2022-09-21T08:52:16.779Z,6.45
2022-09-21T08:55:18.171Z,6.18
2022-09-21T08:57:44.882Z,5.35
2022-09-21T09:00:19.611Z,6.10
2022-09-21T09:03:09.697Z,5.05
2022-09-21T09:06:11.939Z,5.38
2022-09-21T09:08:51.230Z,5.32
2022-09-21T09:11:34.345Z,4.22
2022-09-21T09:14:15.723Z,4.78
2022-09-21T09:17:07.899Z,5.22
2022-09-21T09:19:40.947Z,3.55
2022-09-21T09:25:01.012Z,4.95
2022-09-21T09:27:42.253Z,5.03
2022-09-21T09:30:23.782Z,4.70
2022-09-21T09:33:18.859Z,4.88
2022-09-21T09:36:14.874Z,3.55
2022-09-21T09:38:58.549Z,3.60
2022-09-21T09:42:03.460Z,3.70
2022-09-21T09:44:49.017Z,3.73
2022-09-21T09:47:48.797Z,3.80
2022-09-21T09:52:44.484Z,3.38
2022-09-21T09:55:21.157Z,3.47
2022-09-21T09:57:49.991Z,3.20
2022-09-21T10:00:20.526Z,3.00
2022-09-21T10:02:53.059Z,2.80
2022-09-21T10:05:40.379Z,3.20
2022-09-21T10:08:36.916Z,2.40
2022-09-21T10:11:04.684Z,3.70
2022-09-21T10:13:35.632Z,3.60
2022-09-21T10:16:13.061Z,3.67
2022-09-21T10:18:56.753Z,2.77
2022-09-21T10:21:33.109Z,2.10
2022-09-21T10:24:15.853Z,2.23
2022-09-21T10:26:47.037Z,2.50
2022-09-21T10:29:26.009Z,2.80
2022-09-21T10:32:19.110Z,2.50
2022-09-21T10:35:08.324Z,2.83
2022-09-21T10:37:41.494Z,2.27
2022-09-21T10:40:20.787Z,4.53
2022-09-21T10:42:53.861Z,1.77
2022-09-21T10:45:33.051Z,2.73
2022-09-21T10:48:16.797Z,2.60
2022-09-21T10:50:49.991Z,2.27
2022-09-21T10:53:30.256Z,2.67
2022-09-21T10:56:14.579Z,2.33
2022-09-21T10:59:23.206Z,2.17
2022-09-21T11:01:52.143Z,2.53
2022-09-21T11:04:48.610Z,2.50
2022-09-21T11:07:29.121Z,2.77
2022-09-21T11:10:24.502Z,1.70
2022-09-21T11:13:30.733Z,2.10
2022-09-21T11:16:11.971Z,1.90
2022-09-21T11:19:05.740Z,1.80
2022-09-21T11:22:05.478Z,1.77
2022-09-21T11:24:49.187Z,1.77
2022-09-21T11:27:29.127Z,1.60
2022-09-21T11:30:18.873Z,2.20
2022-09-21T11:32:52.906Z,1.90
2022-09-21T11:35:30.443Z,1.80
2022-09-21T11:38:34.284Z,2.60
2022-09-21T11:41:44.480Z,1.80
2022-09-21T11:44:50.970Z,1.50
2022-09-21T11:47:43.112Z,1.93
2022-09-21T11:50:30.658Z,1.83
2022-09-21T11:53:15.104Z,1.90
2022-09-21T11:56:01.409Z,1.30
2022-09-21T11:58:40.847Z,1.37
2022-09-21T12:01:24.668Z,1.33
2022-09-21T12:04:20.138Z,1.50
2022-09-21T12:06:53.045Z,2.30
2022-09-21T12:09:44.494Z,1.30
2022-09-21T12:12:17.157Z,1.40
2022-09-21T12:14:57.298Z,1.40
2022-09-21T12:17:53.465Z,2.20
2022-09-21T12:20:55.076Z,1.63
2022-09-21T12:23:29.902Z,1.20
2022-09-21T12:25:58.721Z,1.43
2022-09-21T12:28:30.435Z,1.70
2022-09-21T12:31:09.288Z,2.30
2022-09-21T12:33:58.948Z,1.70
2022-09-21T12:36:32.211Z,2.17
2022-09-21T12:39:08.142Z,1.40
2022-09-21T12:41:47.450Z,1.50
2022-09-21T12:44:52.268Z,1.73
2022-09-21T12:47:41.680Z,1.30
2022-09-21T12:50:25.504Z,1.70
2022-09-21T12:52:53.530Z,1.43
2022-09-21T12:55:53.093Z,1.43
2022-09-21T12:58:44.212Z,1.37
2022-09-21T13:01:29.197Z,1.30
2022-09-21T13:04:14.599Z,1.67
2022-09-21T13:07:07.950Z,1.40
2022-09-21T13:09:38.744Z,1.50
2022-09-21T13:12:14.918Z,1.33
2022-09-21T13:14:50.148Z,1.47
2022-09-21T13:17:24.707Z,1.80
2022-09-21T13:20:15.408Z,1.17
2022-09-21T13:22:43.419Z,1.37
2022-09-21T13:25:16.051Z,1.57
2022-09-21T13:28:17.434Z,1.77
2022-09-21T13:31:36.727Z,1.47
2022-09-21T13:34:16.759Z,1.53
2022-09-21T13:36:43.541Z,1.60
2022-09-21T13:39:18.238Z,1.50
2022-09-21T13:42:03.544Z,1.67
2022-09-21T13:44:34.537Z,1.30
2022-09-21T13:47:01.771Z,1.50
2022-09-21T13:49:40.270Z,1.57
2022-09-21T13:52:17.002Z,0.80
2022-09-21T13:54:59.272Z,1.20
2022-09-21T13:57:39.500Z,1.27
2022-09-21T14:00:34.095Z,1.33
2022-09-21T14:05:49.709Z,1.60
2022-09-21T14:08:20.580Z,1.87
2022-09-21T14:11:06.692Z,1.93
2022-09-21T14:13:42.505Z,1.70
2022-09-21T14:19:21.183Z,1.90
2022-09-21T14:22:09.669Z,1.87
2022-09-21T14:24:51.515Z,1.97
2022-09-21T14:27:52.416Z,1.87
2022-09-21T14:30:23.370Z,1.87
2022-09-21T14:33:03.051Z,2.60
2022-09-21T14:35:48.833Z,1.58
2022-09-21T14:38:43.693Z,1.70
2022-09-21T14:41:17.354Z,1.50
2022-09-21T14:43:52.247Z,1.53
2022-09-21T14:46:43.080Z,1.63
2022-09-21T14:54:47.790Z,1.40
2022-09-21T14:57:44.032Z,1.70
2022-09-21T15:02:49.577Z,1.50
2022-09-21T15:05:40.403Z,1.40
2022-09-21T15:11:47.351Z,1.53
2022-09-21T15:14:28.627Z,1.20
2022-09-21T15:16:56.560Z,1.52
2022-09-21T15:19:37.827Z,1.70
2022-09-21T15:22:22.377Z,2.65
2022-09-21T15:24:56.369Z,1.90
2022-09-21T15:27:26.951Z,1.90
2022-09-21T15:29:56.098Z,2.00
2022-09-21T15:35:03.182Z,2.03
2022-09-21T15:40:17.522Z,2.05
2022-09-21T15:45:47.445Z,1.80
2022-09-21T15:48:14.455Z,1.70
2022-09-21T15:50:43.130Z,1.75
2022-09-21T15:53:22.403Z,1.52
2022-09-21T15:55:49.975Z,1.45
2022-09-21T15:58:37.373Z,1.92
2022-09-21T16:01:12.898Z,2.05
2022-09-21T16:03:43.907Z,2.40
2022-09-21T16:08:50.082Z,1.58
2022-09-21T16:11:23.339Z,1.80
2022-09-21T16:14:19.379Z,1.90
2022-09-21T16:19:42.585Z,1.60
2022-09-21T16:22:15.323Z,1.95
2022-09-21T16:24:50.470Z,1.70
2022-09-21T16:30:01.571Z,1.70
2022-09-21T16:32:32.037Z,1.50
2022-09-21T16:35:18.022Z,1.27
2022-09-21T16:37:45.115Z,1.70
2022-09-21T16:40:14.504Z,1.27
2022-09-21T16:42:44.760Z,1.80
2022-09-21T16:45:35.346Z,1.38
2022-09-21T16:48:07.935Z,1.90
2022-09-21T16:50:37.458Z,1.90
2022-09-21T16:53:04.831Z,1.83
2022-09-21T16:55:32.480Z,1.92
2022-09-21T16:58:00.933Z,1.73
2022-09-21T17:00:31.428Z,1.45
2022-09-21T17:02:59.595Z,1.60
2022-09-21T17:05:27.882Z,2.17
2022-09-21T17:07:57.387Z,1.48
2022-09-21T17:10:29.416Z,1.83
2022-09-21T17:13:09.795Z,1.52
2022-09-21T17:15:44.905Z,2.00
2022-09-21T17:18:14.240Z,2.33
2022-09-21T17:20:44.690Z,2.30
2022-09-21T17:23:12.374Z,2.38
2022-09-21T17:25:40.852Z,1.50
2022-09-21T17:28:26.035Z,1.80
2022-09-21T17:30:58.910Z,1.92
2022-09-21T17:33:33.982Z,1.40
2022-09-21T17:36:03.218Z,1.52
2022-09-21T17:38:32.029Z,2.15
2022-09-21T17:41:00.140Z,2.50
2022-09-21T17:44:11.889Z,2.70
2022-09-21T17:47:01.389Z,2.60
2022-09-21T17:49:30.027Z,2.85
2022-09-21T17:52:15.494Z,2.30
2022-09-21T17:54:42.594Z,2.05
2022-09-21T17:57:41.290Z,2.65
2022-09-21T18:00:24.482Z,2.10
2022-09-21T18:02:54.205Z,2.40
2022-09-21T18:05:31.270Z,3.08
2022-09-21T18:07:58.789Z,2.00
2022-09-21T18:10:28.016Z,2.25
2022-09-21T18:13:29.336Z,2.38
2022-09-21T18:16:21.862Z,2.78
2022-09-21T18:19:29.631Z,3.47
2022-09-21T18:22:07.591Z,3.13
2022-09-21T18:24:34.941Z,3.55
2022-09-21T18:27:02.346Z,3.17
2022-09-21T18:29:42.145Z,3.35
2022-09-21T18:35:27.300Z,2.80
2022-09-21T18:38:13.405Z,4.90
2022-09-21T18:41:00.508Z,3.25
2022-09-21T18:46:19.519Z,9.18
2022-09-21T18:49:17.545Z,3.80
2022-09-21T18:51:54.649Z,4.55
2022-09-21T18:54:24.399Z,3.60
2022-09-21T18:56:53.612Z,4.18
2022-09-21T18:59:20.929Z,4.05
2022-09-21T19:01:49.034Z,3.55
2022-09-21T19:04:18.016Z,4.88
2022-09-21T19:07:10.697Z,4.70
2022-09-21T19:10:11.819Z,4.13
2022-09-21T19:13:23.124Z,3.92
2022-09-21T19:16:01.898Z,3.60
2022-09-21T19:18:36.643Z,3.90
2022-09-21T19:21:21.838Z,3.88
2022-09-21T19:24:01.094Z,4.35
2022-09-21T19:26:46.294Z,3.80
2022-09-21T19:29:42.916Z,4.03
2022-09-21T19:32:21.081Z,3.92
2022-09-21T19:34:54.061Z,3.88
2022-09-21T19:37:20.964Z,4.97
2022-09-21T19:39:49.728Z,4.43
2022-09-21T19:42:38.546Z,3.88
2022-09-21T19:45:32.296Z,3.90
2022-09-21T19:48:04.796Z,4.57
2022-09-21T19:51:02.292Z,4.70
2022-09-21T19:53:50.162Z,5.72
2022-09-21T19:56:41.818Z,4.57
2022-09-21T19:59:28.045Z,5.13
2022-09-21T20:01:58.205Z,5.18
2022-09-21T20:04:48.782Z,4.72
2022-09-21T20:07:44.530Z,4.47
2022-09-21T20:10:31.942Z,5.03
2022-09-21T20:13:31.996Z,4.07
2022-09-21T20:16:04.772Z,4.55
2022-09-21T20:18:45.381Z,4.65
2022-09-21T20:21:18.069Z,4.13
2022-09-21T20:23:50.077Z,3.78
2022-09-21T20:29:02.124Z,5.90
2022-09-21T20:31:30.169Z,4.10
2022-09-21T20:33:57.356Z,4.25
2022-09-21T20:36:24.839Z,3.95
2022-09-21T20:38:51.789Z,3.75
2022-09-21T20:41:24.798Z,3.35
2022-09-21T20:43:51.815Z,3.75
2022-09-21T20:46:18.877Z,3.50
2022-09-21T20:48:45.968Z,3.83
2022-09-21T20:51:16.716Z,3.88
2022-09-21T20:53:46.427Z,3.50
2022-09-21T20:56:13.338Z,3.67
2022-09-21T20:58:41.861Z,3.33
2022-09-21T21:01:11.264Z,3.47
2022-09-21T21:03:38.282Z,3.10
2022-09-21T21:14:07.098Z,2.92
2022-09-21T21:19:11.055Z,2.53
2022-09-21T21:27:02.287Z,2.85
2022-09-21T21:29:35.366Z,2.63
2022-09-21T21:32:04.217Z,2.97
2022-09-21T21:34:33.641Z,2.70
2022-09-21T21:37:01.107Z,2.45
2022-09-21T21:42:10.662Z,2.80
2022-09-21T21:44:39.029Z,3.10
2022-09-21T21:47:27.772Z,3.60
2022-09-21T21:49:55.864Z,4.10
2022-09-21T21:52:23.152Z,3.42
2022-09-21T21:54:52.612Z,3.40
2022-09-21T21:57:19.866Z,4.03
2022-09-21T21:59:47.018Z,5.55
2022-09-21T22:02:14.629Z,3.85
2022-09-21T22:04:44.881Z,4.90
2022-09-21T22:07:11.760Z,4.80
2022-09-21T22:09:41.542Z,4.47
2022-09-21T22:12:10.385Z,4.30
2022-09-21T22:14:37.825Z,5.55
2022-09-21T22:17:06.775Z,5.18
2022-09-21T22:19:39.412Z,5.55
2022-09-21T22:22:10.680Z,5.18
2022-09-21T22:24:39.857Z,6.28
2022-09-21T22:27:06.835Z,6.22
2022-09-21T22:48:27.130Z,6.20
2022-09-21T22:50:54.622Z,5.63
2022-09-21T22:53:23.179Z,6.53
2022-09-21T22:56:02.333Z,7.32
2022-09-21T22:58:30.463Z,6.95
2022-09-21T23:01:30.706Z,8.70
2022-09-21T23:04:00.752Z,7.43
2022-09-21T23:06:37.445Z,8.30
2022-09-21T23:09:10.292Z,7.55
2022-09-21T23:11:44.281Z,8.82
2022-09-21T23:14:12.303Z,7.40
2022-09-21T23:16:39.383Z,7.97
2022-09-21T23:19:07.568Z,6.55
2022-09-21T23:21:34.978Z,7.82
2022-09-21T23:24:05.808Z,7.55
2022-09-21T23:42:48.090Z,6.57
